This is the latest recevied weather packets stored in our database for station/object KC5DAQ-26. If no packets are shown the sender has not sent any weather packets the latest 10 day(s).
| Time | Temp. | Humidity | Pressure | Rain* | Wind** | Luminosity | Snow |
|---|---|---|---|---|---|---|---|
| 1788042244 | 35° C | 59% | 1017.2 hPa | 0 mm | - | 417 W/m² | - |
| 1788042183 | 35° C | 58% | 1017.2 hPa | 0 mm | - | 417 W/m² | - |
| 1788042122 | 35° C | 57% | 1017.2 hPa | 0 mm | - | 427 W/m² | - |
| 1788042064 | 35.56° C | 57% | 1017.2 hPa | 0 mm | - | 429 W/m² | - |
| 1788042004 | 35.56° C | 57% | 1017.2 hPa | 0 mm | - | 434 W/m² | - |
| 1788041944 | 35.56° C | 59% | 1017.2 hPa | 0 mm | - | 438 W/m² | - |
| 1788041882 | 35.56° C | 56% | 1017.2 hPa | 0 mm | - | 447 W/m² | - |
| 1788041824 | 35.56° C | 57% | 1017.2 hPa | 0 mm | - | 450 W/m² | - |
| 1788041763 | 35.56° C | 57% | 1017.3 hPa | 0 mm | - | 457 W/m² | - |
| 1788041703 | 35.56° C | 55% | 1017.3 hPa | 0 mm | - | 462 W/m² | - |
| 1788041641 | 35.56° C | 55% | 1017.2 hPa | 0 mm | - | 469 W/m² | - |
| 1788041583 | 35.56° C | 55% | 1017.3 hPa | 0 mm | - | 473 W/m² | - |
| 1788041522 | 35.56° C | 55% | 1017.3 hPa | 0 mm | - | 477 W/m² | - |
| 1788041463 | 35.56° C | 54% | 1017.3 hPa | 0 mm | - | 484 W/m² | - |
| 1788041404 | 35.56° C | 55% | 1017.3 hPa | 0 mm | - | 484 W/m² | - |
| 1788041343 | 35.56° C | 56% | 1017.3 hPa | 0 mm | - | 487 W/m² | - |
| 1788041282 | 35.56° C | 58% | 1017.3 hPa | 0 mm | - | 491 W/m² | - |
| 1788041223 | 35.56° C | 60% | 1017.3 hPa | 0 mm | - | 491 W/m² | - |
| 1788041163 | 35.56° C | 52% | 1017.3 hPa | 0 mm | - | 499 W/m² | - |
| 1788041091 | 36.11° C | 54% | 1017.4 hPa | 0 mm | - | 505 W/m² | - |
| 1788041029 | 35.56° C | 53% | 1017.3 hPa | 0 mm | - | 510 W/m² | - |
| 1788040968 | 35.56° C | 52% | 1017.4 hPa | 0 mm | - | 515 W/m² | - |
| 1788040907 | 35.56° C | 53% | 1017.4 hPa | 0 mm | - | 519 W/m² | - |
| 1788040844 | 35.56° C | 56% | 1017.4 hPa | 0 mm | - | 519 W/m² | - |
| 1788040784 | 35.56° C | 55% | 1017.4 hPa | 0 mm | - | 521 W/m² | - |
* Rain latest hour (hover to see other rain measurements)
** Current wind speed in m/s (hover to see current wind gust speed)